Time;durP1;ratioP1;P1;durP2;ratioP2;P2;SDS_P1;SDS_P2;PMS_P1;PMS_P2;Temp;Humidity;BMP_temperature;BMP_pressure;BME280_temperature;BME280_humidity;BME280_pressure;Samples;Min_cycle;Max_cycle;Signal;HPM_P1;HPM_P2
2020/12/29 00:00:55;;;;;;;15.02;6.30;;;;;;;;;;5021403;28;20051;-61
2020/12/29 00:03:21;;;;;;;13.02;5.93;;;;;;;;;;5014197;28;20041;-60
2020/12/29 00:05:47;;;;;;;12.60;5.95;;;;;;;;;;5015319;28;20057;-60
2020/12/29 00:08:14;;;;;;;13.32;6.38;;;;;;;;;;5002348;28;20102;-60
2020/12/29 00:10:40;;;;;;;10.85;5.40;;;;;;;;;;5000631;28;20054;-61
2020/12/29 00:13:06;;;;;;;11.07;5.10;;;;;;;;;;5021545;28;20049;-60
2020/12/29 00:15:33;;;;;;;10.27;4.40;;;;;;;;;;5022049;28;20126;-61
2020/12/29 00:18:00;;;;;;;11.23;5.68;;;;;;;;;;4999555;28;20034;-61
2020/12/29 00:20:26;;;;;;;11.35;4.75;;;;;;;;;;5002132;28;20044;-60
2020/12/29 00:22:52;;;;;;;8.68;4.05;;;;;;;;;;5015132;28;20033;-60
2020/12/29 00:25:18;;;;;;;7.55;3.92;;;;;;;;;;5016838;28;20073;-61
2020/12/29 00:27:45;;;;;;;9.50;4.40;;;;;;;;;;5011127;28;20045;-61
2020/12/29 00:30:10;;;;;;;8.40;4.13;;;;;;;;;;5020714;28;20034;-60
2020/12/29 00:32:36;;;;;;;9.45;3.97;;;;;;;;;;5016124;28;20042;-61
2020/12/29 00:35:04;;;;;;;8.60;3.53;;;;;;;;;;5020398;28;20042;-61
2020/12/29 00:37:30;;;;;;;8.57;3.85;;;;;;;;;;5006784;28;20056;-61
2020/12/29 00:39:56;;;;;;;7.78;3.40;;;;;;;;;;5000841;28;20046;-61
2020/12/29 00:42:22;;;;;;;8.20;3.53;;;;;;;;;;5001132;28;20122;-61
2020/12/29 00:44:48;;;;;;;10.05;4.63;;;;;;;;;;5002599;28;20058;-61
2020/12/29 00:47:14;;;;;;;9.50;4.45;;;;;;;;;;4997669;28;20037;-60
2020/12/29 00:49:40;;;;;;;9.32;4.25;;;;;;;;;;5000511;28;20052;-60
2020/12/29 00:52:07;;;;;;;8.50;4.15;;;;;;;;;;4997747;28;20053;-61
2020/12/29 00:54:33;;;;;;;8.75;4.10;;;;;;;;;;5000626;28;20038;-61
2020/12/29 00:56:59;;;;;;;10.30;4.35;;;;;;;;;;5002331;28;20057;-61
2020/12/29 00:59:25;;;;;;;11.35;4.32;;;;;;;;;;4996211;28;20034;-60
2020/12/29 01:01:54;;;;;;;9.32;4.15;;;;;;;;;;5007718;28;20123;-60
2020/12/29 01:04:21;;;;;;;9.93;3.78;;;;;;;;;;5021252;28;20110;-60
2020/12/29 01:06:47;;;;;;;11.50;4.15;;;;;;;;;;5025722;28;20038;-60
2020/12/29 01:09:14;;;;;;;8.30;3.83;;;;;;;;;;5016126;28;20078;-60
2020/12/29 01:11:39;;;;;;;8.98;4.18;;;;;;;;;;5037751;28;20088;-60
2020/12/29 01:14:06;;;;;;;7.97;4.03;;;;;;;;;;5027639;28;20038;-61
2020/12/29 01:16:32;;;;;;;8.13;3.95;;;;;;;;;;5023630;28;20064;-61
2020/12/29 01:18:58;;;;;;;8.00;3.63;;;;;;;;;;5019407;28;20054;-61
2020/12/29 01:21:24;;;;;;;6.95;3.63;;;;;;;;;;5020613;28;20052;-60
2020/12/29 01:23:50;;;;;;;9.45;4.05;;;;;;;;;;5023000;28;20057;-60
2020/12/29 01:26:24;;;;;;;7.38;3.42;;;;;;;;;;5042681;28;20042;-61
2020/12/29 01:28:50;;;;;;;7.30;3.70;;;;;;;;;;5020289;28;20048;-60
2020/12/29 01:31:16;;;;;;;8.43;3.35;;;;;;;;;;5026066;28;20049;-61
2020/12/29 01:33:42;;;;;;;7.50;3.47;;;;;;;;;;5036143;28;20045;-60
2020/12/29 01:36:09;;;;;;;7.90;3.47;;;;;;;;;;5024594;28;20276;-61
2020/12/29 01:38:35;;;;;;;8.07;3.95;;;;;;;;;;5023722;28;20045;-61
2020/12/29 01:41:01;;;;;;;8.02;3.53;;;;;;;;;;5003625;28;20127;-61
2020/12/29 01:43:28;;;;;;;11.07;3.40;;;;;;;;;;5039415;28;20065;-61
2020/12/29 01:45:57;;;;;;;7.35;3.40;;;;;;;;;;5003923;28;20062;-61
2020/12/29 01:48:23;;;;;;;7.60;3.70;;;;;;;;;;5019997;28;20091;-60
2020/12/29 01:50:49;;;;;;;8.18;3.92;;;;;;;;;;5000753;28;20050;-61
2020/12/29 01:53:15;;;;;;;7.78;3.70;;;;;;;;;;5020970;28;20119;-61
2020/12/29 01:55:42;;;;;;;8.88;3.80;;;;;;;;;;5028141;28;20045;-60
2020/12/29 01:58:08;;;;;;;8.80;4.45;;;;;;;;;;5023101;28;20056;-60
2020/12/29 02:00:35;;;;;;;7.20;3.40;;;;;;;;;;5013161;28;20126;-60
2020/12/29 02:03:01;;;;;;;7.60;3.83;;;;;;;;;;5011190;28;20086;-60
2020/12/29 02:05:28;;;;;;;9.52;3.88;;;;;;;;;;4984793;28;20046;-61
2020/12/29 02:07:53;;;;;;;9.60;3.70;;;;;;;;;;5020722;28;20046;-61
2020/12/29 02:10:20;;;;;;;9.00;3.90;;;;;;;;;;5015045;28;20034;-61
2020/12/29 02:12:46;;;;;;;8.73;4.03;;;;;;;;;;4986597;28;20046;-61
2020/12/29 02:15:12;;;;;;;9.07;4.03;;;;;;;;;;5004535;28;20150;-61
2020/12/29 02:17:39;;;;;;;8.77;4.18;;;;;;;;;;5000767;28;20037;-61
2020/12/29 02:20:06;;;;;;;7.88;3.58;;;;;;;;;;4988048;28;20042;-61
2020/12/29 02:22:33;;;;;;;7.53;3.38;;;;;;;;;;4983889;28;20062;-61
2020/12/29 02:25:03;;;;;;;7.85;3.47;;;;;;;;;;4985677;28;20042;-61
2020/12/29 02:27:30;;;;;;;7.30;3.22;;;;;;;;;;4984570;28;20046;-61
2020/12/29 02:29:57;;;;;;;8.77;3.67;;;;;;;;;;4987026;28;20057;-60
2020/12/29 02:32:24;;;;;;;9.98;4.00;;;;;;;;;;4984896;28;20066;-61
2020/12/29 02:34:50;;;;;;;11.75;3.53;;;;;;;;;;5004547;28;20112;-60
2020/12/29 02:37:16;;;;;;;6.82;3.15;;;;;;;;;;4984656;28;20105;-60
2020/12/29 02:39:44;;;;;;;7.70;3.55;;;;;;;;;;4989084;28;20034;-61
2020/12/29 02:42:10;;;;;;;8.38;3.60;;;;;;;;;;4985456;28;20072;-60
2020/12/29 02:44:37;;;;;;;8.75;4.00;;;;;;;;;;4987594;28;20046;-61
2020/12/29 02:47:03;;;;;;;13.20;3.95;;;;;;;;;;4987483;28;20491;-61
2020/12/29 02:49:29;;;;;;;10.15;3.92;;;;;;;;;;5021689;28;20442;-61
2020/12/29 02:51:56;;;;;;;8.75;3.90;;;;;;;;;;5016698;28;20042;-60
2020/12/29 02:54:23;;;;;;;8.80;3.97;;;;;;;;;;4986563;28;20101;-61
2020/12/29 02:56:50;;;;;;;14.10;4.60;;;;;;;;;;5002488;28;20046;-60
2020/12/29 02:59:16;;;;;;;10.38;4.30;;;;;;;;;;4985462;28;20115;-60
2020/12/29 03:01:42;;;;;;;7.75;3.78;;;;;;;;;;4993562;28;20030;-61
2020/12/29 03:04:10;;;;;;;7.72;3.60;;;;;;;;;;5016328;28;20074;-61
2020/12/29 03:06:36;;;;;;;8.82;3.80;;;;;;;;;;5022960;28;20042;-60
2020/12/29 03:09:02;;;;;;;8.23;3.65;;;;;;;;;;5038046;28;20029;-60
2020/12/29 03:11:28;;;;;;;7.43;3.13;;;;;;;;;;5025755;28;20074;-61
2020/12/29 03:13:55;;;;;;;6.95;3.30;;;;;;;;;;5006683;28;20030;-60
2020/12/29 03:16:21;;;;;;;6.85;3.22;;;;;;;;;;5021928;28;20331;-61
2020/12/29 03:18:47;;;;;;;7.82;3.60;;;;;;;;;;5029378;28;20045;-61
2020/12/29 03:21:13;;;;;;;9.85;3.40;;;;;;;;;;5041302;28;20060;-61
2020/12/29 03:23:39;;;;;;;12.68;3.38;;;;;;;;;;5039429;28;20037;-61
2020/12/29 03:26:08;;;;;;;8.02;3.83;;;;;;;;;;5025658;28;20044;-61
2020/12/29 03:28:34;;;;;;;7.38;3.58;;;;;;;;;;5016810;28;20041;-61
2020/12/29 03:31:01;;;;;;;8.90;3.78;;;;;;;;;;5023520;28;20041;-60
2020/12/29 03:33:27;;;;;;;7.80;3.60;;;;;;;;;;5020123;28;20053;-61
2020/12/29 03:35:54;;;;;;;11.23;4.15;;;;;;;;;;5028007;28;20129;-61
2020/12/29 03:38:20;;;;;;;7.97;3.38;;;;;;;;;;5025595;28;20037;-61
2020/12/29 03:40:46;;;;;;;7.20;3.67;;;;;;;;;;5040586;28;20041;-60
2020/12/29 03:43:13;;;;;;;8.65;3.75;;;;;;;;;;5043250;28;20069;-60
2020/12/29 03:45:40;;;;;;;8.30;3.65;;;;;;;;;;5004732;28;20042;-60
2020/12/29 03:48:07;;;;;;;11.30;4.07;;;;;;;;;;5021658;28;20037;-60
2020/12/29 03:50:33;;;;;;;7.25;3.20;;;;;;;;;;5032946;28;20056;-60
2020/12/29 03:52:59;;;;;;;7.93;3.72;;;;;;;;;;5023932;28;20037;-60
2020/12/29 03:55:26;;;;;;;10.00;3.60;;;;;;;;;;5038807;28;20055;-61
2020/12/29 03:57:52;;;;;;;8.73;3.78;;;;;;;;;;5041540;28;20045;-61
2020/12/29 04:00:17;;;;;;;10.50;4.07;;;;;;;;;;5014662;28;20034;-60
2020/12/29 04:02:43;;;;;;;8.10;3.85;;;;;;;;;;5036396;28;20135;-60
2020/12/29 04:05:11;;;;;;;8.50;3.72;;;;;;;;;;5019203;28;20056;-60
2020/12/29 04:07:37;;;;;;;9.93;4.13;;;;;;;;;;5024957;28;20049;-60
2020/12/29 04:10:04;;;;;;;11.57;4.10;;;;;;;;;;5006636;28;20055;-61
2020/12/29 04:12:30;;;;;;;8.82;3.78;;;;;;;;;;5021606;28;20078;-61
2020/12/29 04:14:56;;;;;;;8.80;4.03;;;;;;;;;;5021524;28;20056;-60
2020/12/29 04:17:22;;;;;;;9.52;3.88;;;;;;;;;;5003047;28;20037;-60
2020/12/29 04:19:48;;;;;;;10.10;4.18;;;;;;;;;;5027641;28;20033;-61
2020/12/29 04:22:15;;;;;;;7.93;4.00;;;;;;;;;;5019697;28;20073;-60
2020/12/29 04:24:43;;;;;;;11.90;4.45;;;;;;;;;;5040486;28;20060;-61
2020/12/29 04:27:09;;;;;;;10.18;4.20;;;;;;;;;;5019505;28;20071;-61
2020/12/29 04:29:35;;;;;;;8.73;4.20;;;;;;;;;;5014451;28;20041;-61
2020/12/29 04:32:01;;;;;;;8.32;4.22;;;;;;;;;;5019552;28;20045;-60
2020/12/29 04:34:27;;;;;;;8.02;4.28;;;;;;;;;;5022350;28;20041;-60
2020/12/29 04:36:53;;;;;;;9.30;4.53;;;;;;;;;;5015656;28;20049;-60
2020/12/29 04:39:20;;;;;;;11.20;4.63;;;;;;;;;;5022212;28;20038;-61
2020/12/29 04:41:50;;;;;;;8.88;4.80;;;;;;;;;;5030884;28;20041;-60
2020/12/29 04:44:17;;;;;;;12.85;4.85;;;;;;;;;;5021132;28;20046;-60
2020/12/29 04:46:44;;;;;;;11.20;4.85;;;;;;;;;;5002952;28;20063;-61
2020/12/29 04:49:10;;;;;;;11.85;4.90;;;;;;;;;;5036839;28;20045;-61
2020/12/29 04:51:36;;;;;;;18.55;5.60;;;;;;;;;;5019675;28;20053;-61
2020/12/29 04:54:06;;;;;;;10.63;5.10;;;;;;;;;;5004363;28;20081;-61
2020/12/29 04:56:33;;;;;;;11.30;4.60;;;;;;;;;;5002840;28;20042;-60
2020/12/29 04:59:00;;;;;;;13.52;5.35;;;;;;;;;;5004254;28;20046;-60
2020/12/29 05:01:29;;;;;;;11.30;5.13;;;;;;;;;;5014041;28;20046;-61
2020/12/29 05:03:55;;;;;;;14.15;4.85;;;;;;;;;;5038567;28;20130;-60
2020/12/29 05:06:22;;;;;;;12.93;5.50;;;;;;;;;;5041049;28;20037;-60
2020/12/29 05:08:48;;;;;;;10.98;5.25;;;;;;;;;;5003366;28;20053;-61
2020/12/29 05:11:15;;;;;;;10.73;5.05;;;;;;;;;;5022042;28;20049;-60
2020/12/29 05:13:43;;;;;;;13.55;5.97;;;;;;;;;;5031166;28;20047;-60
2020/12/29 05:16:09;;;;;;;13.90;6.15;;;;;;;;;;5025025;28;20081;-60
2020/12/29 05:18:36;;;;;;;14.25;5.90;;;;;;;;;;5036041;28;20061;-61
2020/12/29 05:21:02;;;;;;;14.60;6.00;;;;;;;;;;5023157;28;20049;-60
2020/12/29 05:23:28;;;;;;;14.95;5.95;;;;;;;;;;5036450;28;20041;-60
2020/12/29 05:25:54;;;;;;;14.27;5.93;;;;;;;;;;5024592;28;20122;-60
2020/12/29 05:28:20;;;;;;;14.52;6.43;;;;;;;;;;5032897;28;20057;-60
2020/12/29 05:30:56;;;;;;;15.50;6.53;;;;;;;;;;5021916;28;20062;-60
2020/12/29 05:33:22;;;;;;;13.13;6.45;;;;;;;;;;5017282;28;20085;-60
2020/12/29 05:35:51;;;;;;;15.32;6.68;;;;;;;;;;5023784;28;20050;-60
2020/12/29 05:38:17;;;;;;;15.45;6.63;;;;;;;;;;5018718;28;20051;-61
2020/12/29 05:40:45;;;;;;;15.32;6.95;;;;;;;;;;5024719;28;20037;-60
2020/12/29 05:43:11;;;;;;;19.00;6.55;;;;;;;;;;5023701;28;20045;-60
2020/12/29 05:45:38;;;;;;;21.90;7.82;;;;;;;;;;5036104;28;20045;-60
2020/12/29 05:48:06;;;;;;;16.73;7.05;;;;;;;;;;5025754;28;20061;-60
2020/12/29 05:50:32;;;;;;;18.52;8.10;;;;;;;;;;5006225;28;20143;-61
2020/12/29 05:53:00;;;;;;;19.45;8.57;;;;;;;;;;5007618;28;20120;-60
2020/12/29 05:55:26;;;;;;;21.13;8.27;;;;;;;;;;5021021;28;20053;-60
2020/12/29 05:58:00;;;;;;;17.08;7.15;;;;;;;;;;5021929;28;20049;-60
2020/12/29 06:00:26;;;;;;;18.52;8.52;;;;;;;;;;5021033;28;20038;-61
2020/12/29 06:02:54;;;;;;;17.65;8.02;;;;;;;;;;5021564;28;20041;-61
2020/12/29 06:05:22;;;;;;;18.45;6.97;;;;;;;;;;5013946;28;20115;-61
2020/12/29 06:07:48;;;;;;;17.00;7.22;;;;;;;;;;5023302;28;20044;-61
2020/12/29 06:10:15;;;;;;;18.25;8.25;;;;;;;;;;5003428;28;20052;-61
2020/12/29 06:12:42;;;;;;;19.40;8.05;;;;;;;;;;5006663;28;20092;-61
2020/12/29 06:15:08;;;;;;;19.35;7.75;;;;;;;;;;5019909;28;20247;-61
2020/12/29 06:17:43;;;;;;;12.93;5.70;;;;;;;;;;5006350;28;20041;-61
2020/12/29 06:20:16;;;;;;;12.82;5.22;;;;;;;;;;5013732;28;20120;-60
2020/12/29 06:22:47;;;;;;;12.52;5.45;;;;;;;;;;5043644;28;20033;-60
2020/12/29 06:25:16;;;;;;;11.82;4.70;;;;;;;;;;5036993;28;20045;-61
2020/12/29 06:27:45;;;;;;;11.50;4.78;;;;;;;;;;5028603;28;20033;-61
2020/12/29 06:30:12;;;;;;;9.88;4.43;;;;;;;;;;5023548;28;20041;-61
2020/12/29 06:32:40;;;;;;;11.15;4.85;;;;;;;;;;5005458;28;20034;-61
2020/12/29 06:35:13;;;;;;;9.73;4.50;;;;;;;;;;5006010;28;20034;-61
2020/12/29 06:37:42;;;;;;;10.30;4.80;;;;;;;;;;5002446;28;20045;-61
2020/12/29 06:40:12;;;;;;;10.27;4.78;;;;;;;;;;5022614;28;20057;-60
2020/12/29 06:42:39;;;;;;;10.60;4.72;;;;;;;;;;5030899;28;20029;-61
2020/12/29 06:45:06;;;;;;;12.63;5.05;;;;;;;;;;5044692;28;20049;-60
2020/12/29 06:47:32;;;;;;;12.40;5.05;;;;;;;;;;5008418;28;20053;-60
2020/12/29 06:49:58;;;;;;;11.32;4.80;;;;;;;;;;5021762;28;20043;-60
2020/12/29 06:52:32;;;;;;;10.73;4.50;;;;;;;;;;5033234;28;20056;-61
2020/12/29 06:54:59;;;;;;;14.32;5.60;;;;;;;;;;5042733;28;20029;-60
2020/12/29 06:57:45;;;;;;;14.35;5.68;;;;;;;;;;5040754;28;20053;-60
2020/12/29 07:00:15;;;;;;;12.10;4.80;;;;;;;;;;5026454;28;20030;-60
2020/12/29 07:02:42;;;;;;;13.00;5.32;;;;;;;;;;5017790;28;20089;-60
2020/12/29 07:05:12;;;;;;;13.35;5.63;;;;;;;;;;5022953;28;20069;-61
2020/12/29 07:07:45;;;;;;;13.43;6.18;;;;;;;;;;5020174;28;20069;-61
2020/12/29 07:10:12;;;;;;;16.92;6.60;;;;;;;;;;5023803;28;20061;-61
2020/12/29 07:12:42;;;;;;;13.63;5.90;;;;;;;;;;5011272;28;20057;-61
2020/12/29 07:15:08;;;;;;;15.05;5.28;;;;;;;;;;5003527;28;20142;-61
2020/12/29 07:17:34;;;;;;;14.15;5.75;;;;;;;;;;4999706;28;20049;-61
2020/12/29 07:20:00;;;;;;;13.60;5.47;;;;;;;;;;5003089;28;20065;-60
2020/12/29 07:22:26;;;;;;;11.20;5.35;;;;;;;;;;5000771;28;20034;-61
2020/12/29 07:24:54;;;;;;;16.33;5.95;;;;;;;;;;5020959;28;20045;-60
2020/12/29 07:27:20;;;;;;;16.88;6.55;;;;;;;;;;5021204;28;20094;-61
2020/12/29 07:29:56;;;;;;;15.27;6.70;;;;;;;;;;5000938;28;20038;-61
2020/12/29 07:32:22;;;;;;;15.30;6.00;;;;;;;;;;5002219;28;20041;-60
2020/12/29 07:34:49;;;;;;;14.65;5.78;;;;;;;;;;5017744;28;20048;-61
2020/12/29 07:37:15;;;;;;;12.63;5.20;;;;;;;;;;5023267;28;20053;-60
2020/12/29 07:39:42;;;;;;;12.35;5.40;;;;;;;;;;5018490;28;20049;-60
2020/12/29 07:42:08;;;;;;;13.75;5.10;;;;;;;;;;5013517;28;20042;-61
2020/12/29 07:44:35;;;;;;;15.32;5.90;;;;;;;;;;5000068;28;20094;-61
2020/12/29 07:47:02;;;;;;;14.93;5.25;;;;;;;;;;5001984;28;20046;-60
2020/12/29 07:49:28;;;;;;;16.85;5.68;;;;;;;;;;4997708;28;20085;-60
2020/12/29 07:51:54;;;;;;;15.52;6.50;;;;;;;;;;5002834;28;20034;-60
2020/12/29 07:54:20;;;;;;;17.17;6.80;;;;;;;;;;5007986;28;20045;-61
2020/12/29 07:56:47;;;;;;;17.63;6.78;;;;;;;;;;5022473;28;20037;-61
2020/12/29 07:59:12;;;;;;;24.35;9.05;;;;;;;;;;5013265;28;20065;-61
2020/12/29 08:01:52;;;;;;;19.17;7.82;;;;;;;;;;5006400;28;20134;-61
2020/12/29 08:04:27;;;;;;;17.20;7.32;;;;;;;;;;5006809;28;20046;-60
2020/12/29 08:06:53;;;;;;;14.95;5.60;;;;;;;;;;5009626;28;20053;-61
2020/12/29 08:09:19;;;;;;;14.05;5.97;;;;;;;;;;4998872;28;20077;-61
2020/12/29 08:11:45;;;;;;;13.55;5.47;;;;;;;;;;5000239;28;20124;-61
2020/12/29 08:14:12;;;;;;;14.63;5.97;;;;;;;;;;5009925;28;20098;-60
2020/12/29 08:16:38;;;;;;;15.52;6.70;;;;;;;;;;5000358;28;20045;-61
2020/12/29 08:19:06;;;;;;;13.75;6.35;;;;;;;;;;5001281;28;20056;-60
2020/12/29 08:21:36;;;;;;;17.98;7.10;;;;;;;;;;4998712;28;20030;-60
2020/12/29 08:24:02;;;;;;;16.42;7.20;;;;;;;;;;5001771;28;20086;-61
2020/12/29 08:26:28;;;;;;;16.15;6.78;;;;;;;;;;5016403;28;20038;-61
2020/12/29 08:28:55;;;;;;;19.70;7.78;;;;;;;;;;5022566;28;20046;-61
2020/12/29 08:31:21;;;;;;;19.13;7.93;;;;;;;;;;5003826;28;20034;-60
2020/12/29 08:33:50;;;;;;;18.63;7.65;;;;;;;;;;5004583;28;20127;-61
2020/12/29 08:36:22;;;;;;;22.65;7.95;;;;;;;;;;5016739;28;20052;-61
2020/12/29 08:39:21;;;;;;;17.52;7.20;;;;;;;;;;5021811;28;20045;-60
2020/12/29 08:41:52;;;;;;;20.70;8.23;;;;;;;;;;4956649;28;20042;-61
2020/12/29 08:44:22;;;;;;;20.35;8.55;;;;;;;;;;4945285;28;20046;-60
2020/12/29 08:46:48;;;;;;;15.88;7.40;;;;;;;;;;4967905;28;20030;-60
2020/12/29 08:49:14;;;;;;;15.02;6.82;;;;;;;;;;5003201;28;20042;-61
2020/12/29 08:51:42;;;;;;;17.08;7.35;;;;;;;;;;4998298;28;20090;-61
2020/12/29 08:54:08;;;;;;;20.05;8.13;;;;;;;;;;5001652;28;20090;-61
2020/12/29 08:56:35;;;;;;;17.40;7.47;;;;;;;;;;5000372;28;20049;-61
2020/12/29 08:59:08;;;;;;;14.18;6.43;;;;;;;;;;5001446;28;20181;-61
2020/12/29 09:01:35;;;;;;;17.58;7.40;;;;;;;;;;4998021;28;20045;-61
2020/12/29 09:04:20;;;;;;;18.17;7.75;;;;;;;;;;5000268;28;20042;-61
2020/12/29 09:06:46;;;;;;;16.38;6.95;;;;;;;;;;5002632;28;20046;-60
2020/12/29 09:09:12;;;;;;;14.43;6.03;;;;;;;;;;5020898;28;20045;-61
2020/12/29 09:11:38;;;;;;;14.07;6.63;;;;;;;;;;5008853;28;20049;-61
2020/12/29 09:14:05;;;;;;;18.38;7.35;;;;;;;;;;5017163;28;20038;-61
2020/12/29 09:16:32;;;;;;;17.20;7.10;;;;;;;;;;5001246;28;20038;-60
2020/12/29 09:18:58;;;;;;;17.17;7.05;;;;;;;;;;4998243;28;20042;-61
2020/12/29 09:21:27;;;;;;;17.42;6.80;;;;;;;;;;5002795;28;20046;-61
2020/12/29 09:23:56;;;;;;;17.33;7.30;;;;;;;;;;4994025;28;20148;-60
2020/12/29 09:26:22;;;;;;;13.80;6.13;;;;;;;;;;5003562;28;20097;-61
2020/12/29 09:28:48;;;;;;;15.55;6.72;;;;;;;;;;5002243;28;20058;-60
2020/12/29 09:31:14;;;;;;;15.80;6.60;;;;;;;;;;5021339;28;20124;-60
2020/12/29 09:33:42;;;;;;;14.10;6.25;;;;;;;;;;5026018;28;20062;-61
2020/12/29 09:36:18;;;;;;;13.82;5.35;;;;;;;;;;5024973;28;20030;-61
2020/12/29 09:38:44;;;;;;;13.82;5.88;;;;;;;;;;5008781;28;20038;-61
2020/12/29 09:41:10;;;;;;;15.13;6.07;;;;;;;;;;5001272;28;20034;-61
2020/12/29 09:43:36;;;;;;;16.70;6.20;;;;;;;;;;5028148;28;20100;-61
2020/12/29 09:46:03;;;;;;;14.07;5.97;;;;;;;;;;5003572;28;20054;-61
2020/12/29 09:48:29;;;;;;;14.90;5.97;;;;;;;;;;4999571;28;20098;-61
2020/12/29 09:50:59;;;;;;;20.75;8.27;;;;;;;;;;5004896;28;20078;-61
2020/12/29 09:53:25;;;;;;;18.20;7.05;;;;;;;;;;5001939;28;20430;-61
2020/12/29 09:55:52;;;;;;;16.58;7.32;;;;;;;;;;5004339;28;20038;-61
2020/12/29 09:58:18;;;;;;;15.95;6.28;;;;;;;;;;5002981;28;20079;-60
2020/12/29 10:00:46;;;;;;;15.80;6.30;;;;;;;;;;5023646;28;20041;-61
2020/12/29 10:03:13;;;;;;;13.02;5.93;;;;;;;;;;5022447;28;20045;-61
2020/12/29 10:05:39;;;;;;;13.23;5.45;;;;;;;;;;5003984;28;20095;-61
2020/12/29 10:08:06;;;;;;;13.63;5.82;;;;;;;;;;5003777;28;20050;-61
2020/12/29 10:10:32;;;;;;;18.73;6.05;;;;;;;;;;5000201;28;20038;-61
2020/12/29 10:12:58;;;;;;;12.15;5.75;;;;;;;;;;5004517;28;20049;-61
2020/12/29 10:15:25;;;;;;;14.05;6.18;;;;;;;;;;5013093;28;20049;-61
2020/12/29 10:17:51;;;;;;;15.90;6.70;;;;;;;;;;5023748;28;20052;-61
2020/12/29 10:20:17;;;;;;;14.88;6.07;;;;;;;;;;5010680;28;20082;-61
2020/12/29 10:22:43;;;;;;;16.10;6.32;;;;;;;;;;5003809;28;20042;-61
2020/12/29 10:25:14;;;;;;;15.75;6.53;;;;;;;;;;5008412;28;20038;-61
2020/12/29 10:27:40;;;;;;;13.93;6.03;;;;;;;;;;5021914;28;20050;-61
2020/12/29 10:30:06;;;;;;;13.05;6.38;;;;;;;;;;5015648;28;20057;-61
2020/12/29 10:32:32;;;;;;;15.25;6.78;;;;;;;;;;5001571;28;20074;-61
2020/12/29 10:34:58;;;;;;;14.13;6.40;;;;;;;;;;5004405;28;20062;-61
2020/12/29 10:37:25;;;;;;;16.17;6.25;;;;;;;;;;5022214;28;20168;-61
2020/12/29 10:39:51;;;;;;;14.35;6.45;;;;;;;;;;5021547;28;20045;-60
2020/12/29 10:42:18;;;;;;;16.40;7.13;;;;;;;;;;5012657;28;20054;-61
2020/12/29 10:44:44;;;;;;;15.13;6.75;;;;;;;;;;5003419;28;20093;-60
2020/12/29 10:47:10;;;;;;;13.35;6.30;;;;;;;;;;5001405;28;20046;-61
2020/12/29 10:49:36;;;;;;;14.55;5.97;;;;;;;;;;5004279;28;20038;-61
2020/12/29 10:52:02;;;;;;;17.45;6.18;;;;;;;;;;4999486;28;20056;-61
2020/12/29 10:54:30;;;;;;;16.00;6.63;;;;;;;;;;5004432;28;20053;-61
2020/12/29 10:57:03;;;;;;;17.80;7.03;;;;;;;;;;4999182;28;20079;-61
2020/12/29 10:59:30;;;;;;;20.02;7.95;;;;;;;;;;5002817;28;20058;-60
2020/12/29 11:01:56;;;;;;;20.08;7.95;;;;;;;;;;5007895;28;20049;-61
2020/12/29 11:04:24;;;;;;;17.27;6.78;;;;;;;;;;5021330;28;20049;-61
2020/12/29 11:06:50;;;;;;;13.18;5.35;;;;;;;;;;5004442;28;20050;-61
2020/12/29 11:09:16;;;;;;;13.18;5.47;;;;;;;;;;5003389;28;20053;-60
2020/12/29 11:11:42;;;;;;;11.55;5.13;;;;;;;;;;5003242;28;20054;-61
2020/12/29 11:14:08;;;;;;;16.33;5.20;;;;;;;;;;5008694;28;20030;-61
2020/12/29 11:16:35;;;;;;;13.50;5.53;;;;;;;;;;5000725;28;20050;-60
2020/12/29 11:19:01;;;;;;;12.68;5.43;;;;;;;;;;5003919;28;20034;-61
2020/12/29 11:21:33;;;;;;;13.43;6.05;;;;;;;;;;5004133;28;20046;-61
2020/12/29 11:24:02;;;;;;;15.60;5.80;;;;;;;;;;5018871;28;20034;-61
2020/12/29 11:26:28;;;;;;;13.95;5.95;;;;;;;;;;5004493;28;20038;-61
2020/12/29 11:28:54;;;;;;;14.80;5.82;;;;;;;;;;5000924;28;20061;-61
2020/12/29 11:31:21;;;;;;;15.43;6.53;;;;;;;;;;5003770;28;20038;-60
2020/12/29 11:33:49;;;;;;;15.65;6.40;;;;;;;;;;4999098;28;20030;-61
2020/12/29 11:36:16;;;;;;;16.48;6.55;;;;;;;;;;5002720;28;20038;-61
2020/12/29 11:38:42;;;;;;;17.17;6.88;;;;;;;;;;4999661;28;20180;-61
2020/12/29 11:41:08;;;;;;;15.50;6.63;;;;;;;;;;5002881;28;20054;-63
2020/12/29 11:43:34;;;;;;;18.25;6.53;;;;;;;;;;5009185;28;20049;-61
2020/12/29 11:46:02;;;;;;;18.70;7.40;;;;;;;;;;5003547;28;20114;-60
2020/12/29 11:48:28;;;;;;;20.52;8.27;;;;;;;;;;4998224;28;20042;-61
2020/12/29 11:50:54;;;;;;;21.15;7.93;;;;;;;;;;5002551;28;20070;-60
2020/12/29 11:53:20;;;;;;;21.17;8.48;;;;;;;;;;5003924;28;20483;-61
2020/12/29 11:55:47;;;;;;;23.75;8.18;;;;;;;;;;5022649;28;20042;-61
2020/12/29 11:58:13;;;;;;;25.17;7.95;;;;;;;;;;5015824;28;20053;-61
2020/12/29 12:00:39;;;;;;;21.08;8.80;;;;;;;;;;5017634;28;20053;-61
2020/12/29 12:03:05;;;;;;;23.30;9.35;;;;;;;;;;5001661;28;20038;-60
2020/12/29 12:05:31;;;;;;;26.27;8.43;;;;;;;;;;5002355;28;20064;-61
2020/12/29 12:07:58;;;;;;;22.40;9.00;;;;;;;;;;5001237;28;20049;-61
2020/12/29 12:10:24;;;;;;;21.50;10.40;;;;;;;;;;5014832;28;20050;-61
2020/12/29 12:12:50;;;;;;;24.60;9.65;;;;;;;;;;5021938;28;20096;-61
2020/12/29 12:15:17;;;;;;;22.50;9.02;;;;;;;;;;5019512;28;20053;-61
2020/12/29 12:17:43;;;;;;;25.08;10.02;;;;;;;;;;5022419;28;20292;-61
2020/12/29 12:20:09;;;;;;;19.80;8.60;;;;;;;;;;5017868;28;20041;-61
2020/12/29 12:22:35;;;;;;;18.20;8.23;;;;;;;;;;5022228;28;20037;-61
2020/12/29 12:25:03;;;;;;;21.27;9.20;;;;;;;;;;5008935;28;20046;-61
2020/12/29 12:27:29;;;;;;;18.33;8.30;;;;;;;;;;5001611;28;20086;-61
2020/12/29 12:29:55;;;;;;;24.63;8.75;;;;;;;;;;5007296;28;20315;-61
2020/12/29 12:32:21;;;;;;;18.63;8.40;;;;;;;;;;5020304;28;20048;-61
2020/12/29 12:34:47;;;;;;;25.65;10.00;;;;;;;;;;5018286;28;20044;-61
2020/12/29 12:37:13;;;;;;;23.85;10.45;;;;;;;;;;5020931;28;20074;-61
2020/12/29 12:39:40;;;;;;;25.75;9.90;;;;;;;;;;5017553;28;20093;-61
2020/12/29 12:42:07;;;;;;;20.50;9.43;;;;;;;;;;5013325;28;20042;-61
2020/12/29 12:44:36;;;;;;;16.30;7.28;;;;;;;;;;5013701;28;20152;-61
2020/12/29 12:47:04;;;;;;;17.15;8.02;;;;;;;;;;5022318;28;20089;-61
2020/12/29 12:49:30;;;;;;;16.52;7.25;;;;;;;;;;5023734;28;20049;-61
2020/12/29 12:51:56;;;;;;;14.02;6.97;;;;;;;;;;5002515;28;20070;-61
2020/12/29 12:54:26;;;;;;;14.20;6.38;;;;;;;;;;5002353;28;20050;-61
2020/12/29 12:56:52;;;;;;;15.60;6.45;;;;;;;;;;5020579;28;20044;-61
2020/12/29 12:59:19;;;;;;;13.57;5.63;;;;;;;;;;5041528;28;20037;-60
2020/12/29 13:01:46;;;;;;;10.90;5.32;;;;;;;;;;5015571;28;20127;-61
2020/12/29 13:04:12;;;;;;;11.45;5.28;;;;;;;;;;4999276;28;20257;-61
2020/12/29 13:06:38;;;;;;;16.77;7.15;;;;;;;;;;4996133;28;20052;-61
2020/12/29 13:09:04;;;;;;;14.75;6.43;;;;;;;;;;5001092;28;20034;-60
2020/12/29 13:11:30;;;;;;;17.83;7.28;;;;;;;;;;4997794;28;20046;-61
2020/12/29 13:13:57;;;;;;;16.60;6.82;;;;;;;;;;5001175;28;20042;-61
2020/12/29 13:16:24;;;;;;;11.50;5.20;;;;;;;;;;4998719;28;20054;-61
2020/12/29 13:18:50;;;;;;;11.38;5.57;;;;;;;;;;4999988;28;20116;-60
2020/12/29 13:21:17;;;;;;;12.70;5.80;;;;;;;;;;4997805;28;20056;-60
2020/12/29 13:23:43;;;;;;;13.82;5.50;;;;;;;;;;5003479;28;20107;-61
2020/12/29 13:26:10;;;;;;;15.63;6.55;;;;;;;;;;5000211;28;20050;-61
2020/12/29 13:28:36;;;;;;;15.50;5.85;;;;;;;;;;4996619;28;20156;-61
2020/12/29 13:31:02;;;;;;;14.40;5.43;;;;;;;;;;5001492;28;20113;-61
2020/12/29 13:33:29;;;;;;;10.20;4.80;;;;;;;;;;4998537;28;20085;-61
2020/12/29 13:35:57;;;;;;;12.65;5.38;;;;;;;;;;5008777;28;21514;-61
2020/12/29 13:38:23;;;;;;;15.00;6.20;;;;;;;;;;5000415;28;20034;-60
2020/12/29 13:40:48;;;;;;;11.45;5.05;;;;;;;;;;5008456;28;20057;-60
2020/12/29 13:43:15;;;;;;;11.25;4.85;;;;;;;;;;5008483;28;20117;-61
2020/12/29 13:45:41;;;;;;;12.23;5.20;;;;;;;;;;5015066;28;20128;-60
2020/12/29 13:48:07;;;;;;;15.48;4.78;;;;;;;;;;5007750;28;20034;-61
2020/12/29 13:50:35;;;;;;;14.13;4.97;;;;;;;;;;5011501;28;20056;-60
2020/12/29 13:53:01;;;;;;;11.38;3.80;;;;;;;;;;5004105;28;20053;-61
2020/12/29 13:55:27;;;;;;;9.93;3.50;;;;;;;;;;5011800;28;20101;-61
2020/12/29 13:57:53;;;;;;;7.35;2.55;;;;;;;;;;5008598;28;20074;-61
2020/12/29 14:00:19;;;;;;;6.72;3.03;;;;;;;;;;5009235;28;20057;-60
2020/12/29 14:02:45;;;;;;;6.70;2.88;;;;;;;;;;5010057;28;20492;-60
2020/12/29 14:05:11;;;;;;;8.55;3.63;;;;;;;;;;5007938;28;20054;-61
2020/12/29 14:07:38;;;;;;;10.30;4.30;;;;;;;;;;5002881;28;20041;-61
2020/12/29 14:10:04;;;;;;;10.50;4.78;;;;;;;;;;4999844;28;20454;-61
2020/12/29 14:12:30;;;;;;;12.85;5.38;;;;;;;;;;5023343;28;20044;-60
2020/12/29 14:15:01;;;;;;;14.60;4.97;;;;;;;;;;5021032;28;20070;-62
2020/12/29 14:17:27;;;;;;;10.77;4.85;;;;;;;;;;5022737;28;20053;-61
2020/12/29 14:19:53;;;;;;;13.40;4.93;;;;;;;;;;5001208;28;20049;-61
2020/12/29 14:22:19;;;;;;;15.32;6.68;;;;;;;;;;5022983;28;20041;-61
2020/12/29 14:24:46;;;;;;;18.33;6.68;;;;;;;;;;5003402;28;20082;-61
2020/12/29 14:27:13;;;;;;;16.92;6.90;;;;;;;;;;5005782;28;20038;-61
2020/12/29 14:29:39;;;;;;;13.57;5.03;;;;;;;;;;5001228;28;20049;-61
2020/12/29 14:32:05;;;;;;;14.35;5.45;;;;;;;;;;5021885;28;20512;-61